sensor_id;sensor_type;location;lat;lon;timestamp;P1;durP1;ratioP1;P2;durP2;ratioP2
42432;SDS011;28071;48.232;20.668;2023-07-02T00:03:12;3.45;;;2.50;;
42432;SDS011;28071;48.232;20.668;2023-07-02T00:08:13;2.63;;;1.98;;
42432;SDS011;28071;48.232;20.668;2023-07-02T00:13:14;4.47;;;3.10;;
42432;SDS011;28071;48.232;20.668;2023-07-02T00:18:15;3.95;;;2.78;;
42432;SDS011;28071;48.232;20.668;2023-07-02T00:23:16;3.75;;;2.88;;
42432;SDS011;28071;48.232;20.668;2023-07-02T00:28:16;3.42;;;2.38;;
42432;SDS011;28071;48.232;20.668;2023-07-02T00:33:17;6.88;;;2.85;;
42432;SDS011;28071;48.232;20.668;2023-07-02T00:38:18;3.60;;;2.35;;
42432;SDS011;28071;48.232;20.668;2023-07-02T00:43:18;3.95;;;2.30;;
42432;SDS011;28071;48.232;20.668;2023-07-02T00:48:19;5.30;;;2.70;;
42432;SDS011;28071;48.232;20.668;2023-07-02T00:53:19;2.60;;;2.13;;
42432;SDS011;28071;48.232;20.668;2023-07-02T00:58:19;2.05;;;1.85;;
42432;SDS011;28071;48.232;20.668;2023-07-02T01:03:21;3.10;;;2.55;;
42432;SDS011;28071;48.232;20.668;2023-07-02T01:08:21;2.17;;;1.98;;
42432;SDS011;28071;48.232;20.668;2023-07-02T01:13:22;2.70;;;2.30;;
42432;SDS011;28071;48.232;20.668;2023-07-02T01:18:24;2.65;;;2.00;;
42432;SDS011;28071;48.232;20.668;2023-07-02T01:23:25;3.30;;;1.98;;
42432;SDS011;28071;48.232;20.668;2023-07-02T01:28:33;2.22;;;2.03;;
42432;SDS011;28071;48.232;20.668;2023-07-02T01:33:36;3.00;;;1.83;;
42432;SDS011;28071;48.232;20.668;2023-07-02T01:38:36;4.30;;;3.00;;
42432;SDS011;28071;48.232;20.668;2023-07-02T01:43:37;2.03;;;1.60;;
42432;SDS011;28071;48.232;20.668;2023-07-02T01:48:37;2.28;;;1.73;;
42432;SDS011;28071;48.232;20.668;2023-07-02T01:53:38;2.88;;;2.20;;
42432;SDS011;28071;48.232;20.668;2023-07-02T01:58:38;2.95;;;1.80;;
42432;SDS011;28071;48.232;20.668;2023-07-02T02:03:38;2.75;;;2.00;;
42432;SDS011;28071;48.232;20.668;2023-07-02T02:08:39;3.10;;;2.10;;
42432;SDS011;28071;48.232;20.668;2023-07-02T02:13:39;4.80;;;2.53;;
42432;SDS011;28071;48.232;20.668;2023-07-02T02:18:40;3.17;;;2.13;;
42432;SDS011;28071;48.232;20.668;2023-07-02T02:23:40;2.67;;;1.88;;
42432;SDS011;28071;48.232;20.668;2023-07-02T02:28:41;2.47;;;1.90;;
42432;SDS011;28071;48.232;20.668;2023-07-02T02:33:42;1.90;;;1.42;;
42432;SDS011;28071;48.232;20.668;2023-07-02T02:38:43;2.28;;;2.08;;
42432;SDS011;28071;48.232;20.668;2023-07-02T02:43:43;2.60;;;1.75;;
42432;SDS011;28071;48.232;20.668;2023-07-02T02:48:44;5.15;;;2.03;;
42432;SDS011;28071;48.232;20.668;2023-07-02T02:53:44;4.15;;;2.35;;
42432;SDS011;28071;48.232;20.668;2023-07-02T02:58:45;2.97;;;2.67;;
42432;SDS011;28071;48.232;20.668;2023-07-02T03:03:45;2.22;;;2.00;;
42432;SDS011;28071;48.232;20.668;2023-07-02T03:08:45;2.03;;;1.85;;
42432;SDS011;28071;48.232;20.668;2023-07-02T03:13:46;3.10;;;2.10;;
42432;SDS011;28071;48.232;20.668;2023-07-02T03:18:47;7.45;;;2.08;;
42432;SDS011;28071;48.232;20.668;2023-07-02T03:23:47;3.50;;;2.17;;
42432;SDS011;28071;48.232;20.668;2023-07-02T03:28:48;3.38;;;2.13;;
42432;SDS011;28071;48.232;20.668;2023-07-02T03:33:48;2.47;;;2.25;;
42432;SDS011;28071;48.232;20.668;2023-07-02T03:38:49;2.83;;;2.10;;
42432;SDS011;28071;48.232;20.668;2023-07-02T03:43:49;3.03;;;2.28;;
42432;SDS011;28071;48.232;20.668;2023-07-02T03:48:49;3.67;;;2.00;;
42432;SDS011;28071;48.232;20.668;2023-07-02T03:53:50;2.80;;;2.15;;
42432;SDS011;28071;48.232;20.668;2023-07-02T03:58:50;3.10;;;2.10;;
42432;SDS011;28071;48.232;20.668;2023-07-02T04:03:52;3.47;;;2.10;;
42432;SDS011;28071;48.232;20.668;2023-07-02T04:08:53;2.80;;;2.20;;
42432;SDS011;28071;48.232;20.668;2023-07-02T04:13:53;4.38;;;2.60;;
42432;SDS011;28071;48.232;20.668;2023-07-02T04:18:54;2.80;;;1.88;;
42432;SDS011;28071;48.232;20.668;2023-07-02T04:23:54;4.55;;;2.60;;
42432;SDS011;28071;48.232;20.668;2023-07-02T04:28:55;2.50;;;2.30;;
42432;SDS011;28071;48.232;20.668;2023-07-02T04:33:55;3.90;;;2.13;;
42432;SDS011;28071;48.232;20.668;2023-07-02T04:38:57;6.97;;;3.80;;
42432;SDS011;28071;48.232;20.668;2023-07-02T04:43:57;4.95;;;2.97;;
42432;SDS011;28071;48.232;20.668;2023-07-02T04:48:58;5.72;;;3.15;;
42432;SDS011;28071;48.232;20.668;2023-07-02T04:53:58;8.00;;;3.00;;
42432;SDS011;28071;48.232;20.668;2023-07-02T04:58:59;4.65;;;3.33;;
42432;SDS011;28071;48.232;20.668;2023-07-02T05:03:59;6.88;;;3.42;;
42432;SDS011;28071;48.232;20.668;2023-07-02T05:08:59;5.85;;;3.03;;
42432;SDS011;28071;48.232;20.668;2023-07-02T05:14:00;4.20;;;2.72;;
42432;SDS011;28071;48.232;20.668;2023-07-02T05:19:00;3.85;;;2.65;;
42432;SDS011;28071;48.232;20.668;2023-07-02T05:24:01;4.95;;;2.40;;
42432;SDS011;28071;48.232;20.668;2023-07-02T05:29:01;3.42;;;2.70;;
42432;SDS011;28071;48.232;20.668;2023-07-02T05:34:02;4.57;;;2.60;;
42432;SDS011;28071;48.232;20.668;2023-07-02T05:39:02;5.65;;;2.92;;
42432;SDS011;28071;48.232;20.668;2023-07-02T05:44:03;3.60;;;2.47;;
42432;SDS011;28071;48.232;20.668;2023-07-02T05:49:03;3.13;;;2.60;;
42432;SDS011;28071;48.232;20.668;2023-07-02T05:54:06;3.33;;;2.17;;
42432;SDS011;28071;48.232;20.668;2023-07-02T05:59:06;5.18;;;2.13;;
42432;SDS011;28071;48.232;20.668;2023-07-02T06:04:07;3.25;;;2.47;;
42432;SDS011;28071;48.232;20.668;2023-07-02T06:09:07;3.30;;;2.50;;
42432;SDS011;28071;48.232;20.668;2023-07-02T06:14:08;2.28;;;1.90;;
42432;SDS011;28071;48.232;20.668;2023-07-02T06:19:08;5.80;;;3.55;;
42432;SDS011;28071;48.232;20.668;2023-07-02T06:24:09;2.28;;;2.08;;
42432;SDS011;28071;48.232;20.668;2023-07-02T06:29:09;2.92;;;1.58;;
42432;SDS011;28071;48.232;20.668;2023-07-02T06:34:09;2.67;;;1.80;;
42432;SDS011;28071;48.232;20.668;2023-07-02T06:39:10;5.70;;;2.38;;
42432;SDS011;28071;48.232;20.668;2023-07-02T06:44:10;2.20;;;1.80;;
42432;SDS011;28071;48.232;20.668;2023-07-02T06:49:11;2.20;;;2.00;;
42432;SDS011;28071;48.232;20.668;2023-07-02T06:54:12;2.78;;;2.05;;
42432;SDS011;28071;48.232;20.668;2023-07-02T06:59:18;3.33;;;2.22;;
42432;SDS011;28071;48.232;20.668;2023-07-02T07:04:19;1.88;;;1.55;;
42432;SDS011;28071;48.232;20.668;2023-07-02T07:09:20;2.10;;;1.92;;
42432;SDS011;28071;48.232;20.668;2023-07-02T07:14:21;3.60;;;1.35;;
42432;SDS011;28071;48.232;20.668;2023-07-02T07:19:22;3.22;;;2.30;;
42432;SDS011;28071;48.232;20.668;2023-07-02T07:24:22;1.35;;;1.25;;
42432;SDS011;28071;48.232;20.668;2023-07-02T07:29:22;2.25;;;2.03;;
42432;SDS011;28071;48.232;20.668;2023-07-02T07:34:23;2.60;;;1.92;;
42432;SDS011;28071;48.232;20.668;2023-07-02T07:39:23;1.70;;;1.60;;
42432;SDS011;28071;48.232;20.668;2023-07-02T07:44:24;1.73;;;1.52;;
42432;SDS011;28071;48.232;20.668;2023-07-02T07:49:28;2.13;;;1.88;;
42432;SDS011;28071;48.232;20.668;2023-07-02T07:54:29;1.83;;;1.60;;
42432;SDS011;28071;48.232;20.668;2023-07-02T07:59:29;2.95;;;1.38;;
42432;SDS011;28071;48.232;20.668;2023-07-02T08:04:30;2.58;;;1.70;;
42432;SDS011;28071;48.232;20.668;2023-07-02T08:09:30;2.92;;;1.77;;
42432;SDS011;28071;48.232;20.668;2023-07-02T08:14:31;2.35;;;1.45;;
42432;SDS011;28071;48.232;20.668;2023-07-02T08:19:31;1.50;;;1.40;;
42432;SDS011;28071;48.232;20.668;2023-07-02T08:24:32;1.73;;;1.63;;
42432;SDS011;28071;48.232;20.668;2023-07-02T08:29:33;4.20;;;1.67;;
42432;SDS011;28071;48.232;20.668;2023-07-02T08:34:33;2.75;;;1.60;;
42432;SDS011;28071;48.232;20.668;2023-07-02T08:39:34;1.58;;;1.48;;
42432;SDS011;28071;48.232;20.668;2023-07-02T08:44:36;2.33;;;1.83;;
42432;SDS011;28071;48.232;20.668;2023-07-02T08:49:36;1.92;;;1.60;;
42432;SDS011;28071;48.232;20.668;2023-07-02T08:54:37;1.65;;;1.55;;
42432;SDS011;28071;48.232;20.668;2023-07-02T08:59:37;1.90;;;1.60;;
42432;SDS011;28071;48.232;20.668;2023-07-02T09:04:38;1.88;;;1.30;;
42432;SDS011;28071;48.232;20.668;2023-07-02T09:09:48;1.77;;;1.60;;
42432;SDS011;28071;48.232;20.668;2023-07-02T09:14:56;1.85;;;1.55;;
42432;SDS011;28071;48.232;20.668;2023-07-02T09:20:01;1.77;;;1.30;;
42432;SDS011;28071;48.232;20.668;2023-07-02T09:25:08;1.58;;;1.30;;
42432;SDS011;28071;48.232;20.668;2023-07-02T09:30:12;1.65;;;1.48;;
42432;SDS011;28071;48.232;20.668;2023-07-02T09:35:15;2.10;;;1.50;;
42432;SDS011;28071;48.232;20.668;2023-07-02T09:40:16;1.85;;;1.65;;
42432;SDS011;28071;48.232;20.668;2023-07-02T09:45:18;1.90;;;1.70;;
42432;SDS011;28071;48.232;20.668;2023-07-02T09:50:18;1.52;;;1.42;;
42432;SDS011;28071;48.232;20.668;2023-07-02T09:55:21;1.77;;;1.30;;
42432;SDS011;28071;48.232;20.668;2023-07-02T10:00:21;1.65;;;1.52;;
42432;SDS011;28071;48.232;20.668;2023-07-02T10:05:28;2.20;;;1.38;;
42432;SDS011;28071;48.232;20.668;2023-07-02T10:10:30;1.70;;;1.60;;
42432;SDS011;28071;48.232;20.668;2023-07-02T10:15:31;1.95;;;1.75;;
42432;SDS011;28071;48.232;20.668;2023-07-02T10:20:38;1.55;;;1.45;;
42432;SDS011;28071;48.232;20.668;2023-07-02T10:25:39;1.55;;;1.33;;
42432;SDS011;28071;48.232;20.668;2023-07-02T10:30:40;1.58;;;1.48;;
42432;SDS011;28071;48.232;20.668;2023-07-02T10:35:41;1.33;;;1.15;;
42432;SDS011;28071;48.232;20.668;2023-07-02T10:40:45;1.60;;;1.30;;
42432;SDS011;28071;48.232;20.668;2023-07-02T10:45:45;1.75;;;1.30;;
42432;SDS011;28071;48.232;20.668;2023-07-02T10:50:46;2.10;;;1.50;;
42432;SDS011;28071;48.232;20.668;2023-07-02T10:55:52;2.60;;;1.58;;
42432;SDS011;28071;48.232;20.668;2023-07-02T11:00:55;1.40;;;1.25;;
42432;SDS011;28071;48.232;20.668;2023-07-02T11:05:55;1.38;;;1.10;;
42432;SDS011;28071;48.232;20.668;2023-07-02T11:11:07;1.73;;;0.80;;
42432;SDS011;28071;48.232;20.668;2023-07-02T11:16:16;1.13;;;0.95;;
42432;SDS011;28071;48.232;20.668;2023-07-02T11:21:28;1.30;;;0.80;;
42432;SDS011;28071;48.232;20.668;2023-07-02T11:26:35;1.42;;;1.10;;
42432;SDS011;28071;48.232;20.668;2023-07-02T11:31:36;1.63;;;0.80;;
42432;SDS011;28071;48.232;20.668;2023-07-02T11:36:37;1.45;;;1.00;;
42432;SDS011;28071;48.232;20.668;2023-07-02T11:41:41;1.83;;;0.80;;
42432;SDS011;28071;48.232;20.668;2023-07-02T11:46:43;1.38;;;1.05;;
42432;SDS011;28071;48.232;20.668;2023-07-02T11:51:44;1.20;;;0.80;;
42432;SDS011;28071;48.232;20.668;2023-07-02T11:56:49;0.70;;;0.63;;
42432;SDS011;28071;48.232;20.668;2023-07-02T12:01:49;0.95;;;0.80;;
42432;SDS011;28071;48.232;20.668;2023-07-02T12:06:49;3.20;;;1.15;;
42432;SDS011;28071;48.232;20.668;2023-07-02T12:11:50;1.10;;;0.90;;
42432;SDS011;28071;48.232;20.668;2023-07-02T12:16:50;1.30;;;0.85;;
42432;SDS011;28071;48.232;20.668;2023-07-02T12:21:51;1.40;;;0.90;;
42432;SDS011;28071;48.232;20.668;2023-07-02T12:26:51;1.02;;;0.70;;
42432;SDS011;28071;48.232;20.668;2023-07-02T12:31:52;1.33;;;0.88;;
42432;SDS011;28071;48.232;20.668;2023-07-02T12:36:52;1.17;;;0.70;;
42432;SDS011;28071;48.232;20.668;2023-07-02T12:41:52;1.05;;;0.68;;
42432;SDS011;28071;48.232;20.668;2023-07-02T12:46:53;0.75;;;0.60;;
42432;SDS011;28071;48.232;20.668;2023-07-02T12:51:53;0.70;;;0.65;;
42432;SDS011;28071;48.232;20.668;2023-07-02T12:56:54;0.57;;;0.57;;
42432;SDS011;28071;48.232;20.668;2023-07-02T13:01:54;0.85;;;0.57;;
42432;SDS011;28071;48.232;20.668;2023-07-02T13:06:55;1.50;;;0.73;;
42432;SDS011;28071;48.232;20.668;2023-07-02T13:11:55;1.40;;;1.00;;
42432;SDS011;28071;48.232;20.668;2023-07-02T13:16:55;0.90;;;0.65;;
42432;SDS011;28071;48.232;20.668;2023-07-02T13:21:59;0.95;;;0.80;;
42432;SDS011;28071;48.232;20.668;2023-07-02T13:26:59;2.05;;;0.65;;
42432;SDS011;28071;48.232;20.668;2023-07-02T13:32:02;1.15;;;0.73;;
42432;SDS011;28071;48.232;20.668;2023-07-02T13:37:03;1.92;;;1.13;;
42432;SDS011;28071;48.232;20.668;2023-07-02T13:42:04;0.98;;;0.57;;
42432;SDS011;28071;48.232;20.668;2023-07-02T13:47:05;0.68;;;0.68;;
42432;SDS011;28071;48.232;20.668;2023-07-02T13:52:06;1.42;;;0.90;;
42432;SDS011;28071;48.232;20.668;2023-07-02T13:57:06;1.20;;;0.80;;
42432;SDS011;28071;48.232;20.668;2023-07-02T14:02:07;1.45;;;0.85;;
42432;SDS011;28071;48.232;20.668;2023-07-02T14:07:08;0.95;;;0.70;;
42432;SDS011;28071;48.232;20.668;2023-07-02T14:12:08;1.42;;;0.77;;
42432;SDS011;28071;48.232;20.668;2023-07-02T14:17:09;1.40;;;0.90;;
42432;SDS011;28071;48.232;20.668;2023-07-02T14:22:09;0.80;;;0.50;;
42432;SDS011;28071;48.232;20.668;2023-07-02T14:27:09;0.90;;;0.50;;
42432;SDS011;28071;48.232;20.668;2023-07-02T14:32:10;1.80;;;0.60;;
42432;SDS011;28071;48.232;20.668;2023-07-02T14:37:10;0.40;;;0.40;;
42432;SDS011;28071;48.232;20.668;2023-07-02T14:42:11;0.70;;;0.55;;
42432;SDS011;28071;48.232;20.668;2023-07-02T14:47:11;0.50;;;0.40;;
42432;SDS011;28071;48.232;20.668;2023-07-02T14:52:13;0.40;;;0.30;;
42432;SDS011;28071;48.232;20.668;2023-07-02T14:57:13;0.52;;;0.40;;
42432;SDS011;28071;48.232;20.668;2023-07-02T15:02:17;1.65;;;0.40;;
42432;SDS011;28071;48.232;20.668;2023-07-02T15:07:18;0.63;;;0.40;;
42432;SDS011;28071;48.232;20.668;2023-07-02T15:12:19;0.32;;;0.30;;
42432;SDS011;28071;48.232;20.668;2023-07-02T15:17:20;0.30;;;0.30;;
42432;SDS011;28071;48.232;20.668;2023-07-02T15:22:20;0.88;;;0.30;;
42432;SDS011;28071;48.232;20.668;2023-07-02T15:27:21;0.30;;;0.30;;
42432;SDS011;28071;48.232;20.668;2023-07-02T15:32:21;0.30;;;0.30;;
42432;SDS011;28071;48.232;20.668;2023-07-02T15:37:22;0.35;;;0.32;;
42432;SDS011;28071;48.232;20.668;2023-07-02T15:42:22;1.00;;;0.40;;
42432;SDS011;28071;48.232;20.668;2023-07-02T15:47:28;0.40;;;0.30;;
42432;SDS011;28071;48.232;20.668;2023-07-02T15:52:28;0.70;;;0.40;;
42432;SDS011;28071;48.232;20.668;2023-07-02T15:57:29;0.32;;;0.30;;
42432;SDS011;28071;48.232;20.668;2023-07-02T16:02:29;0.32;;;0.20;;
42432;SDS011;28071;48.232;20.668;2023-07-02T16:07:30;0.30;;;0.20;;
42432;SDS011;28071;48.232;20.668;2023-07-02T16:12:30;0.17;;;0.17;;
42432;SDS011;28071;48.232;20.668;2023-07-02T16:17:30;0.60;;;0.40;;
42432;SDS011;28071;48.232;20.668;2023-07-02T16:22:31;0.20;;;0.20;;
42432;SDS011;28071;48.232;20.668;2023-07-02T16:27:33;1.40;;;0.32;;
42432;SDS011;28071;48.232;20.668;2023-07-02T16:32:34;0.22;;;0.20;;
42432;SDS011;28071;48.232;20.668;2023-07-02T16:37:34;0.43;;;0.20;;
42432;SDS011;28071;48.232;20.668;2023-07-02T16:42:35;0.25;;;0.25;;
42432;SDS011;28071;48.232;20.668;2023-07-02T16:47:36;0.20;;;0.20;;
42432;SDS011;28071;48.232;20.668;2023-07-02T16:52:36;0.10;;;0.10;;
42432;SDS011;28071;48.232;20.668;2023-07-02T16:57:36;0.10;;;0.10;;
42432;SDS011;28071;48.232;20.668;2023-07-02T17:02:37;0.20;;;0.20;;
42432;SDS011;28071;48.232;20.668;2023-07-02T17:07:37;0.13;;;0.13;;
42432;SDS011;28071;48.232;20.668;2023-07-02T17:12:38;0.30;;;0.30;;
42432;SDS011;28071;48.232;20.668;2023-07-02T17:17:38;0.75;;;0.40;;
42432;SDS011;28071;48.232;20.668;2023-07-02T17:22:39;0.20;;;0.17;;
42432;SDS011;28071;48.232;20.668;2023-07-02T17:27:39;0.20;;;0.20;;
42432;SDS011;28071;48.232;20.668;2023-07-02T17:32:40;0.28;;;0.13;;
42432;SDS011;28071;48.232;20.668;2023-07-02T17:37:40;0.22;;;0.20;;
42432;SDS011;28071;48.232;20.668;2023-07-02T17:42:43;0.20;;;0.20;;
42432;SDS011;28071;48.232;20.668;2023-07-02T17:47:43;0.25;;;0.13;;
42432;SDS011;28071;48.232;20.668;2023-07-02T17:52:43;4.68;;;1.08;;
42432;SDS011;28071;48.232;20.668;2023-07-02T17:57:45;0.50;;;0.50;;
42432;SDS011;28071;48.232;20.668;2023-07-02T18:02:45;0.50;;;0.50;;
42432;SDS011;28071;48.232;20.668;2023-07-02T18:07:45;0.60;;;0.20;;
42432;SDS011;28071;48.232;20.668;2023-07-02T18:12:46;0.25;;;0.25;;
42432;SDS011;28071;48.232;20.668;2023-07-02T18:17:46;1.50;;;0.65;;
42432;SDS011;28071;48.232;20.668;2023-07-02T18:22:47;0.60;;;0.43;;
42432;SDS011;28071;48.232;20.668;2023-07-02T18:28:09;1.38;;;0.30;;
42432;SDS011;28071;48.232;20.668;2023-07-02T18:33:12;0.52;;;0.30;;
42432;SDS011;28071;48.232;20.668;2023-07-02T18:38:14;0.40;;;0.25;;
42432;SDS011;28071;48.232;20.668;2023-07-02T18:43:15;1.10;;;0.80;;
42432;SDS011;28071;48.232;20.668;2023-07-02T18:48:15;0.20;;;0.20;;
42432;SDS011;28071;48.232;20.668;2023-07-02T18:53:17;1.17;;;0.68;;
42432;SDS011;28071;48.232;20.668;2023-07-02T18:58:18;1.52;;;0.30;;
42432;SDS011;28071;48.232;20.668;2023-07-02T19:03:18;0.30;;;0.30;;
42432;SDS011;28071;48.232;20.668;2023-07-02T19:08:19;0.47;;;0.47;;
42432;SDS011;28071;48.232;20.668;2023-07-02T19:13:21;1.05;;;0.30;;
42432;SDS011;28071;48.232;20.668;2023-07-02T19:18:21;0.30;;;0.30;;
42432;SDS011;28071;48.232;20.668;2023-07-02T19:23:23;0.20;;;0.20;;
42432;SDS011;28071;48.232;20.668;2023-07-02T19:28:25;0.20;;;0.20;;
42432;SDS011;28071;48.232;20.668;2023-07-02T19:33:25;0.40;;;0.20;;
42432;SDS011;28071;48.232;20.668;2023-07-02T19:38:28;0.65;;;0.25;;
42432;SDS011;28071;48.232;20.668;2023-07-02T19:43:29;0.30;;;0.28;;
42432;SDS011;28071;48.232;20.668;2023-07-02T19:48:30;0.60;;;0.32;;
42432;SDS011;28071;48.232;20.668;2023-07-02T19:53:31;0.20;;;0.20;;
42432;SDS011;28071;48.232;20.668;2023-07-02T19:58:31;0.20;;;0.20;;
42432;SDS011;28071;48.232;20.668;2023-07-02T20:03:32;0.20;;;0.20;;
42432;SDS011;28071;48.232;20.668;2023-07-02T20:08:33;0.45;;;0.40;;
42432;SDS011;28071;48.232;20.668;2023-07-02T20:13:33;0.65;;;0.30;;
42432;SDS011;28071;48.232;20.668;2023-07-02T20:18:34;0.22;;;0.20;;
42432;SDS011;28071;48.232;20.668;2023-07-02T20:23:35;0.68;;;0.38;;
42432;SDS011;28071;48.232;20.668;2023-07-02T20:28:35;0.25;;;0.25;;
42432;SDS011;28071;48.232;20.668;2023-07-02T20:33:36;1.52;;;1.00;;
42432;SDS011;28071;48.232;20.668;2023-07-02T20:38:36;0.30;;;0.30;;
42432;SDS011;28071;48.232;20.668;2023-07-02T20:43:37;0.40;;;0.28;;
42432;SDS011;28071;48.232;20.668;2023-07-02T20:48:43;0.85;;;0.52;;
42432;SDS011;28071;48.232;20.668;2023-07-02T20:53:43;0.50;;;0.30;;
42432;SDS011;28071;48.232;20.668;2023-07-02T20:58:44;0.52;;;0.47;;
42432;SDS011;28071;48.232;20.668;2023-07-02T21:03:44;0.45;;;0.43;;
42432;SDS011;28071;48.232;20.668;2023-07-02T21:08:45;0.73;;;0.20;;
42432;SDS011;28071;48.232;20.668;2023-07-02T21:13:45;0.45;;;0.30;;
42432;SDS011;28071;48.232;20.668;2023-07-02T21:18:46;0.25;;;0.25;;
42432;SDS011;28071;48.232;20.668;2023-07-02T21:23:46;0.60;;;0.43;;
42432;SDS011;28071;48.232;20.668;2023-07-02T21:28:46;0.28;;;0.28;;
42432;SDS011;28071;48.232;20.668;2023-07-02T21:33:47;0.47;;;0.47;;
42432;SDS011;28071;48.232;20.668;2023-07-02T21:38:47;0.25;;;0.20;;
42432;SDS011;28071;48.232;20.668;2023-07-02T21:43:48;0.47;;;0.38;;
42432;SDS011;28071;48.232;20.668;2023-07-02T21:48:48;0.38;;;0.30;;
42432;SDS011;28071;48.232;20.668;2023-07-02T21:53:49;0.88;;;0.47;;
42432;SDS011;28071;48.232;20.668;2023-07-02T21:58:50;0.75;;;0.50;;
42432;SDS011;28071;48.232;20.668;2023-07-02T22:03:50;1.38;;;0.50;;
42432;SDS011;28071;48.232;20.668;2023-07-02T22:08:51;0.65;;;0.35;;
42432;SDS011;28071;48.232;20.668;2023-07-02T22:13:51;0.55;;;0.32;;
42432;SDS011;28071;48.232;20.668;2023-07-02T22:18:52;0.80;;;0.50;;
42432;SDS011;28071;48.232;20.668;2023-07-02T22:23:52;3.03;;;0.50;;
42432;SDS011;28071;48.232;20.668;2023-07-02T22:28:52;3.00;;;0.80;;
42432;SDS011;28071;48.232;20.668;2023-07-02T22:33:53;1.73;;;0.77;;
42432;SDS011;28071;48.232;20.668;2023-07-02T22:38:53;1.05;;;0.50;;
42432;SDS011;28071;48.232;20.668;2023-07-02T22:43:54;1.15;;;0.70;;
42432;SDS011;28071;48.232;20.668;2023-07-02T22:48:54;0.60;;;0.60;;
42432;SDS011;28071;48.232;20.668;2023-07-02T22:53:54;1.95;;;0.90;;
42432;SDS011;28071;48.232;20.668;2023-07-02T22:58:55;0.75;;;0.50;;
42432;SDS011;28071;48.232;20.668;2023-07-02T23:03:56;0.52;;;0.52;;
42432;SDS011;28071;48.232;20.668;2023-07-02T23:08:56;0.35;;;0.25;;
42432;SDS011;28071;48.232;20.668;2023-07-02T23:13:56;2.25;;;0.63;;
42432;SDS011;28071;48.232;20.668;2023-07-02T23:18:57;0.77;;;0.70;;
42432;SDS011;28071;48.232;20.668;2023-07-02T23:23:57;4.45;;;0.95;;
42432;SDS011;28071;48.232;20.668;2023-07-02T23:28:58;1.25;;;0.70;;
42432;SDS011;28071;48.232;20.668;2023-07-02T23:33:58;0.65;;;0.50;;
42432;SDS011;28071;48.232;20.668;2023-07-02T23:38:59;0.50;;;0.30;;
42432;SDS011;28071;48.232;20.668;2023-07-02T23:43:59;0.52;;;0.50;;
42432;SDS011;28071;48.232;20.668;2023-07-02T23:49:00;2.78;;;0.52;;
42432;SDS011;28071;48.232;20.668;2023-07-02T23:54:01;0.35;;;0.35;;
42432;SDS011;28071;48.232;20.668;2023-07-02T23:59:02;1.13;;;0.95;;
